sensor_id;sensor_type;location;lat;lon;timestamp;temperature;humidity
30889;DHT22;51092;50.874;7.024;2024-03-07T00:00:46;6.70;99.90
30889;DHT22;51092;50.874;7.024;2024-03-07T00:01:49;6.70;99.90
30889;DHT22;51092;50.874;7.024;2024-03-07T00:02:51;6.60;99.90
30889;DHT22;51092;50.874;7.024;2024-03-07T00:03:53;6.60;99.90
30889;DHT22;51092;50.874;7.024;2024-03-07T00:04:55;6.60;99.90
30889;DHT22;51092;50.874;7.024;2024-03-07T00:05:57;6.60;99.90
30889;DHT22;51092;50.874;7.024;2024-03-07T00:06:59;6.60;99.60
30889;DHT22;51092;50.874;7.024;2024-03-07T00:08:02;6.50;99.30
30889;DHT22;51092;50.874;7.024;2024-03-07T00:09:03;6.50;99.00
30889;DHT22;51092;50.874;7.024;2024-03-07T00:10:07;6.40;98.80
30889;DHT22;51092;50.874;7.024;2024-03-07T00:11:09;6.30;98.30
30889;DHT22;51092;50.874;7.024;2024-03-07T00:12:13;6.20;98.80
30889;DHT22;51092;50.874;7.024;2024-03-07T00:13:15;6.20;99.90
30889;DHT22;51092;50.874;7.024;2024-03-07T00:14:19;6.30;99.90
30889;DHT22;51092;50.874;7.024;2024-03-07T00:15:22;6.30;99.90
30889;DHT22;51092;50.874;7.024;2024-03-07T00:16:24;6.30;99.90
30889;DHT22;51092;50.874;7.024;2024-03-07T00:17:26;6.20;99.90
30889;DHT22;51092;50.874;7.024;2024-03-07T00:18:29;6.20;99.90
30889;DHT22;51092;50.874;7.024;2024-03-07T00:19:30;6.20;99.90
30889;DHT22;51092;50.874;7.024;2024-03-07T00:20:31;6.20;99.90
30889;DHT22;51092;50.874;7.024;2024-03-07T00:21:33;6.30;99.90
30889;DHT22;51092;50.874;7.024;2024-03-07T00:22:34;6.40;99.90
30889;DHT22;51092;50.874;7.024;2024-03-07T00:23:36;6.50;99.90
30889;DHT22;51092;50.874;7.024;2024-03-07T00:24:39;6.50;99.90
30889;DHT22;51092;50.874;7.024;2024-03-07T00:25:41;6.60;99.90
30889;DHT22;51092;50.874;7.024;2024-03-07T00:26:44;6.60;99.90
30889;DHT22;51092;50.874;7.024;2024-03-07T00:27:48;6.50;99.90
30889;DHT22;51092;50.874;7.024;2024-03-07T00:28:53;6.50;99.90
30889;DHT22;51092;50.874;7.024;2024-03-07T00:29:55;6.40;99.90
30889;DHT22;51092;50.874;7.024;2024-03-07T00:30:58;6.40;99.90
30889;DHT22;51092;50.874;7.024;2024-03-07T00:31:59;6.40;99.90
30889;DHT22;51092;50.874;7.024;2024-03-07T00:33:02;6.30;99.90
30889;DHT22;51092;50.874;7.024;2024-03-07T00:34:06;6.30;99.90
30889;DHT22;51092;50.874;7.024;2024-03-07T00:35:09;6.20;99.90
30889;DHT22;51092;50.874;7.024;2024-03-07T00:36:11;6.20;99.90
30889;DHT22;51092;50.874;7.024;2024-03-07T00:37:14;6.20;99.90
30889;DHT22;51092;50.874;7.024;2024-03-07T00:38:15;6.10;99.90
30889;DHT22;51092;50.874;7.024;2024-03-07T00:39:18;6.20;99.90
30889;DHT22;51092;50.874;7.024;2024-03-07T00:40:21;6.20;99.90
30889;DHT22;51092;50.874;7.024;2024-03-07T00:41:24;6.10;99.90
30889;DHT22;51092;50.874;7.024;2024-03-07T00:42:26;6.10;99.90
30889;DHT22;51092;50.874;7.024;2024-03-07T00:43:30;6.10;99.90
30889;DHT22;51092;50.874;7.024;2024-03-07T00:44:33;6.20;99.90
30889;DHT22;51092;50.874;7.024;2024-03-07T00:45:36;6.20;99.90
30889;DHT22;51092;50.874;7.024;2024-03-07T00:46:38;6.20;99.90
30889;DHT22;51092;50.874;7.024;2024-03-07T00:47:40;6.10;99.90
30889;DHT22;51092;50.874;7.024;2024-03-07T00:48:42;6.10;99.90
30889;DHT22;51092;50.874;7.024;2024-03-07T00:49:44;6.10;99.90
30889;DHT22;51092;50.874;7.024;2024-03-07T00:50:47;6.00;99.90
30889;DHT22;51092;50.874;7.024;2024-03-07T00:51:49;6.00;99.90
30889;DHT22;51092;50.874;7.024;2024-03-07T00:52:52;6.00;99.90
30889;DHT22;51092;50.874;7.024;2024-03-07T00:53:53;6.00;99.90
30889;DHT22;51092;50.874;7.024;2024-03-07T00:54:56;6.10;99.90
30889;DHT22;51092;50.874;7.024;2024-03-07T00:55:57;6.00;99.90
30889;DHT22;51092;50.874;7.024;2024-03-07T00:56:59;6.00;99.90
30889;DHT22;51092;50.874;7.024;2024-03-07T00:58:00;5.90;99.90
30889;DHT22;51092;50.874;7.024;2024-03-07T00:59:05;5.90;99.90
30889;DHT22;51092;50.874;7.024;2024-03-07T01:00:08;5.90;99.90
30889;DHT22;51092;50.874;7.024;2024-03-07T01:01:14;6.00;99.90
30889;DHT22;51092;50.874;7.024;2024-03-07T01:02:16;6.00;99.90
30889;DHT22;51092;50.874;7.024;2024-03-07T01:03:19;6.10;99.90
30889;DHT22;51092;50.874;7.024;2024-03-07T01:04:20;6.10;99.90
30889;DHT22;51092;50.874;7.024;2024-03-07T01:05:22;6.10;99.90
30889;DHT22;51092;50.874;7.024;2024-03-07T01:06:24;6.10;99.90
30889;DHT22;51092;50.874;7.024;2024-03-07T01:07:26;6.00;99.90
30889;DHT22;51092;50.874;7.024;2024-03-07T01:08:29;6.00;99.90
30889;DHT22;51092;50.874;7.024;2024-03-07T01:09:33;6.00;99.90
30889;DHT22;51092;50.874;7.024;2024-03-07T01:10:35;6.00;99.90
30889;DHT22;51092;50.874;7.024;2024-03-07T01:11:38;6.00;99.90
30889;DHT22;51092;50.874;7.024;2024-03-07T01:12:39;5.90;99.90
30889;DHT22;51092;50.874;7.024;2024-03-07T01:13:41;5.90;99.90
30889;DHT22;51092;50.874;7.024;2024-03-07T01:14:46;5.90;99.90
30889;DHT22;51092;50.874;7.024;2024-03-07T01:15:48;5.90;99.90
30889;DHT22;51092;50.874;7.024;2024-03-07T01:16:53;5.90;99.90
30889;DHT22;51092;50.874;7.024;2024-03-07T01:17:55;5.90;99.90
30889;DHT22;51092;50.874;7.024;2024-03-07T01:18:57;5.90;99.90
30889;DHT22;51092;50.874;7.024;2024-03-07T01:20:00;5.90;99.90
30889;DHT22;51092;50.874;7.024;2024-03-07T01:21:03;5.80;99.90
30889;DHT22;51092;50.874;7.024;2024-03-07T01:22:06;5.90;99.90
30889;DHT22;51092;50.874;7.024;2024-03-07T01:23:09;5.80;99.90
30889;DHT22;51092;50.874;7.024;2024-03-07T01:24:11;5.80;99.90
30889;DHT22;51092;50.874;7.024;2024-03-07T01:25:14;5.80;99.90
30889;DHT22;51092;50.874;7.024;2024-03-07T01:26:17;5.80;99.90
30889;DHT22;51092;50.874;7.024;2024-03-07T01:27:19;5.80;99.90
30889;DHT22;51092;50.874;7.024;2024-03-07T01:28:21;5.80;99.90
30889;DHT22;51092;50.874;7.024;2024-03-07T01:29:23;5.80;99.90
30889;DHT22;51092;50.874;7.024;2024-03-07T01:30:27;5.90;99.90
30889;DHT22;51092;50.874;7.024;2024-03-07T01:31:29;5.90;99.90
30889;DHT22;51092;50.874;7.024;2024-03-07T01:32:31;5.90;99.90
30889;DHT22;51092;50.874;7.024;2024-03-07T01:33:34;5.90;99.90
30889;DHT22;51092;50.874;7.024;2024-03-07T01:34:36;5.90;99.90
30889;DHT22;51092;50.874;7.024;2024-03-07T01:35:39;5.90;99.90
30889;DHT22;51092;50.874;7.024;2024-03-07T01:36:41;5.90;99.90
30889;DHT22;51092;50.874;7.024;2024-03-07T01:37:43;5.90;99.90
30889;DHT22;51092;50.874;7.024;2024-03-07T01:38:45;5.90;99.90
30889;DHT22;51092;50.874;7.024;2024-03-07T01:39:50;5.80;99.90
30889;DHT22;51092;50.874;7.024;2024-03-07T01:40:51;5.80;99.90
30889;DHT22;51092;50.874;7.024;2024-03-07T01:41:54;5.90;99.90
30889;DHT22;51092;50.874;7.024;2024-03-07T01:42:56;5.80;99.90
30889;DHT22;51092;50.874;7.024;2024-03-07T01:43:57;5.90;99.90
30889;DHT22;51092;50.874;7.024;2024-03-07T01:45:00;5.90;99.90
30889;DHT22;51092;50.874;7.024;2024-03-07T01:46:03;5.90;99.90
30889;DHT22;51092;50.874;7.024;2024-03-07T01:47:06;5.90;99.90
30889;DHT22;51092;50.874;7.024;2024-03-07T01:48:09;5.90;99.90
30889;DHT22;51092;50.874;7.024;2024-03-07T01:49:12;5.80;99.90
30889;DHT22;51092;50.874;7.024;2024-03-07T01:50:14;5.80;99.90
30889;DHT22;51092;50.874;7.024;2024-03-07T01:51:19;5.70;99.90
30889;DHT22;51092;50.874;7.024;2024-03-07T01:52:23;5.80;99.90
30889;DHT22;51092;50.874;7.024;2024-03-07T01:53:26;5.70;99.90
30889;DHT22;51092;50.874;7.024;2024-03-07T01:54:28;5.70;99.90
30889;DHT22;51092;50.874;7.024;2024-03-07T01:55:31;5.70;99.90
30889;DHT22;51092;50.874;7.024;2024-03-07T01:56:35;5.80;99.90
30889;DHT22;51092;50.874;7.024;2024-03-07T01:57:40;5.80;99.90
30889;DHT22;51092;50.874;7.024;2024-03-07T01:58:42;5.70;99.90
30889;DHT22;51092;50.874;7.024;2024-03-07T01:59:45;5.70;99.90
30889;DHT22;51092;50.874;7.024;2024-03-07T02:00:48;5.50;99.50
30889;DHT22;51092;50.874;7.024;2024-03-07T02:01:51;5.30;99.70
30889;DHT22;51092;50.874;7.024;2024-03-07T02:02:54;5.40;99.90
30889;DHT22;51092;50.874;7.024;2024-03-07T02:03:56;5.30;99.80
30889;DHT22;51092;50.874;7.024;2024-03-07T02:04:59;5.10;99.50
30889;DHT22;51092;50.874;7.024;2024-03-07T02:06:00;5.00;99.60
30889;DHT22;51092;50.874;7.024;2024-03-07T02:07:04;4.90;99.90
30889;DHT22;51092;50.874;7.024;2024-03-07T02:08:06;4.90;99.90
30889;DHT22;51092;50.874;7.024;2024-03-07T02:09:09;4.80;99.90
30889;DHT22;51092;50.874;7.024;2024-03-07T02:10:11;4.90;99.90
30889;DHT22;51092;50.874;7.024;2024-03-07T02:11:14;4.90;99.90
30889;DHT22;51092;50.874;7.024;2024-03-07T02:12:15;4.90;99.90
30889;DHT22;51092;50.874;7.024;2024-03-07T02:13:17;4.90;99.90
30889;DHT22;51092;50.874;7.024;2024-03-07T02:14:18;4.80;99.90
30889;DHT22;51092;50.874;7.024;2024-03-07T02:15:21;4.70;99.90
30889;DHT22;51092;50.874;7.024;2024-03-07T02:16:23;4.80;99.90
30889;DHT22;51092;50.874;7.024;2024-03-07T02:17:28;4.70;99.90
30889;DHT22;51092;50.874;7.024;2024-03-07T02:18:29;4.70;99.90
30889;DHT22;51092;50.874;7.024;2024-03-07T02:19:32;4.50;99.90
30889;DHT22;51092;50.874;7.024;2024-03-07T02:20:33;4.50;99.90
30889;DHT22;51092;50.874;7.024;2024-03-07T02:21:36;4.40;99.90
30889;DHT22;51092;50.874;7.024;2024-03-07T02:22:38;4.30;99.90
30889;DHT22;51092;50.874;7.024;2024-03-07T02:23:39;4.30;99.90
30889;DHT22;51092;50.874;7.024;2024-03-07T02:24:41;4.20;99.90
30889;DHT22;51092;50.874;7.024;2024-03-07T02:25:44;4.10;99.90
30889;DHT22;51092;50.874;7.024;2024-03-07T02:26:46;4.10;99.90
30889;DHT22;51092;50.874;7.024;2024-03-07T02:27:47;4.00;99.90
30889;DHT22;51092;50.874;7.024;2024-03-07T02:28:52;4.00;99.90
30889;DHT22;51092;50.874;7.024;2024-03-07T02:29:54;4.00;99.90
30889;DHT22;51092;50.874;7.024;2024-03-07T02:30:56;4.00;99.90
30889;DHT22;51092;50.874;7.024;2024-03-07T02:31:58;4.10;99.90
30889;DHT22;51092;50.874;7.024;2024-03-07T02:33:00;4.20;99.90
30889;DHT22;51092;50.874;7.024;2024-03-07T02:34:07;4.10;99.90
30889;DHT22;51092;50.874;7.024;2024-03-07T02:35:10;4.10;99.90
30889;DHT22;51092;50.874;7.024;2024-03-07T02:36:11;4.20;99.90
30889;DHT22;51092;50.874;7.024;2024-03-07T02:37:14;4.20;99.90
30889;DHT22;51092;50.874;7.024;2024-03-07T02:38:15;4.20;99.90
30889;DHT22;51092;50.874;7.024;2024-03-07T02:39:18;4.20;99.90
30889;DHT22;51092;50.874;7.024;2024-03-07T02:40:19;4.30;99.90
30889;DHT22;51092;50.874;7.024;2024-03-07T02:41:22;4.40;99.90
30889;DHT22;51092;50.874;7.024;2024-03-07T02:42:23;4.40;99.90
30889;DHT22;51092;50.874;7.024;2024-03-07T02:43:26;4.30;99.90
30889;DHT22;51092;50.874;7.024;2024-03-07T02:44:28;4.40;99.90
30889;DHT22;51092;50.874;7.024;2024-03-07T02:45:31;4.30;99.90
30889;DHT22;51092;50.874;7.024;2024-03-07T02:46:32;4.30;99.90
30889;DHT22;51092;50.874;7.024;2024-03-07T02:47:34;4.30;99.90
30889;DHT22;51092;50.874;7.024;2024-03-07T02:48:35;4.40;99.90
30889;DHT22;51092;50.874;7.024;2024-03-07T02:49:37;4.40;99.90
30889;DHT22;51092;50.874;7.024;2024-03-07T02:50:39;4.40;99.90
30889;DHT22;51092;50.874;7.024;2024-03-07T02:51:40;4.20;99.90
30889;DHT22;51092;50.874;7.024;2024-03-07T02:52:44;4.10;99.90
30889;DHT22;51092;50.874;7.024;2024-03-07T02:53:48;4.10;99.90
30889;DHT22;51092;50.874;7.024;2024-03-07T02:54:49;4.10;99.90
30889;DHT22;51092;50.874;7.024;2024-03-07T02:55:57;4.10;99.90
30889;DHT22;51092;50.874;7.024;2024-03-07T02:56:59;4.00;99.90
30889;DHT22;51092;50.874;7.024;2024-03-07T02:58:00;3.90;99.90
30889;DHT22;51092;50.874;7.024;2024-03-07T02:59:04;3.90;99.90
30889;DHT22;51092;50.874;7.024;2024-03-07T03:00:06;3.80;99.90
30889;DHT22;51092;50.874;7.024;2024-03-07T03:01:26;3.80;99.90
30889;DHT22;51092;50.874;7.024;2024-03-07T03:02:28;3.70;99.90
30889;DHT22;51092;50.874;7.024;2024-03-07T03:03:34;3.70;99.90
30889;DHT22;51092;50.874;7.024;2024-03-07T03:04:41;3.70;99.90
30889;DHT22;51092;50.874;7.024;2024-03-07T03:05:44;3.60;99.90
30889;DHT22;51092;50.874;7.024;2024-03-07T03:06:46;3.60;99.90
30889;DHT22;51092;50.874;7.024;2024-03-07T03:07:48;3.50;99.90
30889;DHT22;51092;50.874;7.024;2024-03-07T03:08:59;3.50;99.90
30889;DHT22;51092;50.874;7.024;2024-03-07T03:10:00;3.50;99.90
30889;DHT22;51092;50.874;7.024;2024-03-07T03:11:05;3.50;99.90
30889;DHT22;51092;50.874;7.024;2024-03-07T03:12:10;3.50;99.90
30889;DHT22;51092;50.874;7.024;2024-03-07T03:13:12;3.50;99.90
30889;DHT22;51092;50.874;7.024;2024-03-07T03:14:15;3.50;99.90
30889;DHT22;51092;50.874;7.024;2024-03-07T03:15:16;3.40;99.90
30889;DHT22;51092;50.874;7.024;2024-03-07T03:16:20;3.40;99.90
30889;DHT22;51092;50.874;7.024;2024-03-07T03:17:22;3.40;99.90
30889;DHT22;51092;50.874;7.024;2024-03-07T03:18:24;3.40;99.90
30889;DHT22;51092;50.874;7.024;2024-03-07T03:19:26;3.40;99.90
30889;DHT22;51092;50.874;7.024;2024-03-07T03:20:30;3.40;99.90
30889;DHT22;51092;50.874;7.024;2024-03-07T03:21:37;3.40;99.90
30889;DHT22;51092;50.874;7.024;2024-03-07T03:22:41;3.40;99.90
30889;DHT22;51092;50.874;7.024;2024-03-07T03:23:55;3.50;99.90
30889;DHT22;51092;50.874;7.024;2024-03-07T03:25:00;3.50;99.90
30889;DHT22;51092;50.874;7.024;2024-03-07T03:26:02;3.40;99.90
30889;DHT22;51092;50.874;7.024;2024-03-07T03:27:04;3.40;99.90
30889;DHT22;51092;50.874;7.024;2024-03-07T03:28:06;3.30;99.90
30889;DHT22;51092;50.874;7.024;2024-03-07T03:29:20;3.30;99.90
30889;DHT22;51092;50.874;7.024;2024-03-07T03:30:22;3.30;99.90
30889;DHT22;51092;50.874;7.024;2024-03-07T03:31:25;3.30;99.90
30889;DHT22;51092;50.874;7.024;2024-03-07T03:32:29;3.30;99.90
30889;DHT22;51092;50.874;7.024;2024-03-07T03:33:33;3.30;99.90
30889;DHT22;51092;50.874;7.024;2024-03-07T03:34:35;3.30;99.90
30889;DHT22;51092;50.874;7.024;2024-03-07T03:35:40;3.30;99.90
30889;DHT22;51092;50.874;7.024;2024-03-07T03:36:41;3.20;99.90
30889;DHT22;51092;50.874;7.024;2024-03-07T03:37:44;3.30;99.90
30889;DHT22;51092;50.874;7.024;2024-03-07T03:38:46;3.30;99.90
30889;DHT22;51092;50.874;7.024;2024-03-07T03:40:00;3.30;99.90
30889;DHT22;51092;50.874;7.024;2024-03-07T03:41:05;3.20;99.90
30889;DHT22;51092;50.874;7.024;2024-03-07T03:42:12;3.20;99.90
30889;DHT22;51092;50.874;7.024;2024-03-07T03:43:21;3.40;99.90
30889;DHT22;51092;50.874;7.024;2024-03-07T03:44:35;3.40;99.90
30889;DHT22;51092;50.874;7.024;2024-03-07T03:45:37;3.40;99.90
30889;DHT22;51092;50.874;7.024;2024-03-07T03:46:39;3.50;99.90
30889;DHT22;51092;50.874;7.024;2024-03-07T03:47:42;3.60;99.90
30889;DHT22;51092;50.874;7.024;2024-03-07T03:48:48;3.50;99.90
30889;DHT22;51092;50.874;7.024;2024-03-07T03:49:51;3.50;99.90
30889;DHT22;51092;50.874;7.024;2024-03-07T03:50:59;3.40;99.90
30889;DHT22;51092;50.874;7.024;2024-03-07T03:52:06;3.40;99.90
30889;DHT22;51092;50.874;7.024;2024-03-07T03:53:09;3.40;99.90
30889;DHT22;51092;50.874;7.024;2024-03-07T03:54:10;3.40;99.90
30889;DHT22;51092;50.874;7.024;2024-03-07T03:55:23;3.50;99.90
30889;DHT22;51092;50.874;7.024;2024-03-07T03:56:24;3.50;99.90
30889;DHT22;51092;50.874;7.024;2024-03-07T03:57:45;3.60;99.90
30889;DHT22;51092;50.874;7.024;2024-03-07T03:58:59;3.60;99.90
30889;DHT22;51092;50.874;7.024;2024-03-07T04:00:10;3.80;99.90
30889;DHT22;51092;50.874;7.024;2024-03-07T04:01:24;3.80;99.90
30889;DHT22;51092;50.874;7.024;2024-03-07T04:02:44;3.80;99.90
30889;DHT22;51092;50.874;7.024;2024-03-07T04:03:50;3.80;99.90
30889;DHT22;51092;50.874;7.024;2024-03-07T04:05:11;3.80;99.90
30889;DHT22;51092;50.874;7.024;2024-03-07T04:06:21;3.80;99.90
30889;DHT22;51092;50.874;7.024;2024-03-07T04:07:30;3.70;99.90
30889;DHT22;51092;50.874;7.024;2024-03-07T04:08:42;3.60;99.90
30889;DHT22;51092;50.874;7.024;2024-03-07T04:09:59;3.50;99.90
30889;DHT22;51092;50.874;7.024;2024-03-07T04:11:16;3.40;99.90
30889;DHT22;51092;50.874;7.024;2024-03-07T04:12:19;3.30;99.90
30889;DHT22;51092;50.874;7.024;2024-03-07T04:13:25;3.30;99.90
30889;DHT22;51092;50.874;7.024;2024-03-07T04:14:29;3.30;99.90
30889;DHT22;51092;50.874;7.024;2024-03-07T04:15:42;3.30;99.90
30889;DHT22;51092;50.874;7.024;2024-03-07T04:16:45;3.20;99.90
30889;DHT22;51092;50.874;7.024;2024-03-07T04:17:55;3.10;99.90
30889;DHT22;51092;50.874;7.024;2024-03-07T04:18:58;3.00;99.90
30889;DHT22;51092;50.874;7.024;2024-03-07T04:20:09;2.90;99.90
30889;DHT22;51092;50.874;7.024;2024-03-07T04:21:13;2.90;99.90
30889;DHT22;51092;50.874;7.024;2024-03-07T04:22:15;2.90;99.90
30889;DHT22;51092;50.874;7.024;2024-03-07T04:23:20;2.90;99.90
30889;DHT22;51092;50.874;7.024;2024-03-07T04:24:21;2.90;99.90
30889;DHT22;51092;50.874;7.024;2024-03-07T04:25:24;2.90;99.90
30889;DHT22;51092;50.874;7.024;2024-03-07T04:26:28;2.90;99.90
30889;DHT22;51092;50.874;7.024;2024-03-07T04:27:30;2.90;99.90
30889;DHT22;51092;50.874;7.024;2024-03-07T04:28:31;2.90;99.90
30889;DHT22;51092;50.874;7.024;2024-03-07T04:29:34;2.90;99.90
30889;DHT22;51092;50.874;7.024;2024-03-07T04:30:35;3.00;99.90
30889;DHT22;51092;50.874;7.024;2024-03-07T04:31:40;2.90;99.90
30889;DHT22;51092;50.874;7.024;2024-03-07T04:32:42;2.90;99.90
30889;DHT22;51092;50.874;7.024;2024-03-07T04:33:45;2.90;99.90
30889;DHT22;51092;50.874;7.024;2024-03-07T04:34:47;2.80;99.90
30889;DHT22;51092;50.874;7.024;2024-03-07T04:35:49;2.80;99.90
30889;DHT22;51092;50.874;7.024;2024-03-07T04:36:54;2.80;99.90
30889;DHT22;51092;50.874;7.024;2024-03-07T04:37:56;2.90;99.90
30889;DHT22;51092;50.874;7.024;2024-03-07T04:38:58;2.80;99.90
30889;DHT22;51092;50.874;7.024;2024-03-07T04:40:01;2.80;99.90
30889;DHT22;51092;50.874;7.024;2024-03-07T04:41:03;2.80;99.90
30889;DHT22;51092;50.874;7.024;2024-03-07T04:42:08;2.80;99.90
30889;DHT22;51092;50.874;7.024;2024-03-07T04:43:10;2.80;99.90
30889;DHT22;51092;50.874;7.024;2024-03-07T04:44:13;2.80;99.90
30889;DHT22;51092;50.874;7.024;2024-03-07T04:45:15;2.80;99.90
30889;DHT22;51092;50.874;7.024;2024-03-07T04:46:20;2.90;99.90
30889;DHT22;51092;50.874;7.024;2024-03-07T04:47:21;2.80;99.90
30889;DHT22;51092;50.874;7.024;2024-03-07T04:48:24;2.80;99.90
30889;DHT22;51092;50.874;7.024;2024-03-07T04:49:27;2.80;99.90
30889;DHT22;51092;50.874;7.024;2024-03-07T04:50:29;2.80;99.90
30889;DHT22;51092;50.874;7.024;2024-03-07T04:51:30;2.80;99.90
30889;DHT22;51092;50.874;7.024;2024-03-07T04:52:32;2.80;99.90
30889;DHT22;51092;50.874;7.024;2024-03-07T04:53:34;2.80;99.90
30889;DHT22;51092;50.874;7.024;2024-03-07T04:54:38;2.80;99.90
30889;DHT22;51092;50.874;7.024;2024-03-07T04:55:40;2.70;99.90
30889;DHT22;51092;50.874;7.024;2024-03-07T04:56:41;2.80;99.90
30889;DHT22;51092;50.874;7.024;2024-03-07T04:57:45;2.80;99.90
30889;DHT22;51092;50.874;7.024;2024-03-07T04:58:46;2.80;99.90
30889;DHT22;51092;50.874;7.024;2024-03-07T04:59:52;2.80;99.90
30889;DHT22;51092;50.874;7.024;2024-03-07T05:00:53;2.80;99.90
30889;DHT22;51092;50.874;7.024;2024-03-07T05:01:55;2.80;99.90
30889;DHT22;51092;50.874;7.024;2024-03-07T05:02:56;2.80;99.90
30889;DHT22;51092;50.874;7.024;2024-03-07T05:03:59;2.80;99.90
30889;DHT22;51092;50.874;7.024;2024-03-07T05:05:02;2.80;99.90
30889;DHT22;51092;50.874;7.024;2024-03-07T05:06:05;2.80;99.90
30889;DHT22;51092;50.874;7.024;2024-03-07T05:07:08;2.80;99.90
30889;DHT22;51092;50.874;7.024;2024-03-07T05:08:13;2.80;99.90
30889;DHT22;51092;50.874;7.024;2024-03-07T05:09:15;2.90;99.90
30889;DHT22;51092;50.874;7.024;2024-03-07T05:10:26;2.90;99.90
30889;DHT22;51092;50.874;7.024;2024-03-07T05:11:32;2.90;99.90
30889;DHT22;51092;50.874;7.024;2024-03-07T05:12:35;3.00;99.90
30889;DHT22;51092;50.874;7.024;2024-03-07T05:13:39;3.00;99.90
30889;DHT22;51092;50.874;7.024;2024-03-07T05:14:43;3.10;99.90
30889;DHT22;51092;50.874;7.024;2024-03-07T05:15:45;3.10;99.90
30889;DHT22;51092;50.874;7.024;2024-03-07T05:16:47;3.10;99.90
30889;DHT22;51092;50.874;7.024;2024-03-07T05:18:05;3.20;99.90
30889;DHT22;51092;50.874;7.024;2024-03-07T05:19:08;3.40;99.90
30889;DHT22;51092;50.874;7.024;2024-03-07T05:20:11;3.40;99.90
30889;DHT22;51092;50.874;7.024;2024-03-07T05:21:14;3.40;99.90
30889;DHT22;51092;50.874;7.024;2024-03-07T05:22:35;3.40;99.90
30889;DHT22;51092;50.874;7.024;2024-03-07T05:23:39;3.50;99.90
30889;DHT22;51092;50.874;7.024;2024-03-07T05:24:40;3.50;99.90
30889;DHT22;51092;50.874;7.024;2024-03-07T05:25:43;3.60;99.90
30889;DHT22;51092;50.874;7.024;2024-03-07T05:26:47;3.60;99.90
30889;DHT22;51092;50.874;7.024;2024-03-07T05:27:49;3.80;99.90
30889;DHT22;51092;50.874;7.024;2024-03-07T05:28:53;3.80;99.90
30889;DHT22;51092;50.874;7.024;2024-03-07T05:29:55;3.80;99.90
30889;DHT22;51092;50.874;7.024;2024-03-07T05:30:58;3.80;99.90
30889;DHT22;51092;50.874;7.024;2024-03-07T05:32:20;3.70;99.90
30889;DHT22;51092;50.874;7.024;2024-03-07T05:33:21;3.70;99.90
30889;DHT22;51092;50.874;7.024;2024-03-07T05:34:24;3.60;99.90
30889;DHT22;51092;50.874;7.024;2024-03-07T05:35:29;3.60;99.90
30889;DHT22;51092;50.874;7.024;2024-03-07T05:36:31;3.70;99.90
30889;DHT22;51092;50.874;7.024;2024-03-07T05:37:33;3.60;99.90
30889;DHT22;51092;50.874;7.024;2024-03-07T05:38:34;3.70;99.90
30889;DHT22;51092;50.874;7.024;2024-03-07T05:39:36;3.80;99.90
30889;DHT22;51092;50.874;7.024;2024-03-07T05:40:38;3.90;99.90
30889;DHT22;51092;50.874;7.024;2024-03-07T05:41:42;4.00;99.90
30889;DHT22;51092;50.874;7.024;2024-03-07T05:42:47;3.90;99.90
30889;DHT22;51092;50.874;7.024;2024-03-07T05:43:49;3.90;99.90
30889;DHT22;51092;50.874;7.024;2024-03-07T05:44:53;3.90;99.90
30889;DHT22;51092;50.874;7.024;2024-03-07T05:45:55;3.90;99.90
30889;DHT22;51092;50.874;7.024;2024-03-07T05:46:58;4.00;99.90
30889;DHT22;51092;50.874;7.024;2024-03-07T05:48:15;4.00;99.90
30889;DHT22;51092;50.874;7.024;2024-03-07T05:49:16;3.90;99.90
30889;DHT22;51092;50.874;7.024;2024-03-07T05:50:19;3.90;99.90
30889;DHT22;51092;50.874;7.024;2024-03-07T05:51:20;4.00;99.90
30889;DHT22;51092;50.874;7.024;2024-03-07T05:52:21;4.00;99.90
30889;DHT22;51092;50.874;7.024;2024-03-07T05:54:34;4.00;99.90
30889;DHT22;51092;50.874;7.024;2024-03-07T05:55:39;4.00;99.90
30889;DHT22;51092;50.874;7.024;2024-03-07T05:56:41;4.00;99.90
30889;DHT22;51092;50.874;7.024;2024-03-07T05:57:43;4.00;99.90
30889;DHT22;51092;50.874;7.024;2024-03-07T05:58:45;4.10;99.90
30889;DHT22;51092;50.874;7.024;2024-03-07T05:59:47;4.10;99.90
30889;DHT22;51092;50.874;7.024;2024-03-07T06:00:50;4.10;99.90
30889;DHT22;51092;50.874;7.024;2024-03-07T06:01:51;4.10;99.90
30889;DHT22;51092;50.874;7.024;2024-03-07T06:02:52;4.10;99.90
30889;DHT22;51092;50.874;7.024;2024-03-07T06:03:57;4.10;99.90
30889;DHT22;51092;50.874;7.024;2024-03-07T06:04:58;4.10;99.90
30889;DHT22;51092;50.874;7.024;2024-03-07T06:06:00;4.10;99.90
30889;DHT22;51092;50.874;7.024;2024-03-07T06:07:02;4.10;99.90
30889;DHT22;51092;50.874;7.024;2024-03-07T06:08:05;4.10;99.90
30889;DHT22;51092;50.874;7.024;2024-03-07T06:09:09;4.10;99.90
30889;DHT22;51092;50.874;7.024;2024-03-07T06:10:14;4.00;99.90
30889;DHT22;51092;50.874;7.024;2024-03-07T06:11:17;4.00;99.90
30889;DHT22;51092;50.874;7.024;2024-03-07T06:12:22;4.00;99.90
30889;DHT22;51092;50.874;7.024;2024-03-07T06:13:24;4.00;99.90
30889;DHT22;51092;50.874;7.024;2024-03-07T06:14:26;4.00;99.90
30889;DHT22;51092;50.874;7.024;2024-03-07T06:15:29;4.10;99.90
30889;DHT22;51092;50.874;7.024;2024-03-07T06:16:33;4.10;99.90
30889;DHT22;51092;50.874;7.024;2024-03-07T06:17:36;4.10;99.90
30889;DHT22;51092;50.874;7.024;2024-03-07T06:18:38;4.10;99.90
30889;DHT22;51092;50.874;7.024;2024-03-07T06:19:40;4.10;99.90
30889;DHT22;51092;50.874;7.024;2024-03-07T06:20:44;4.00;99.90
30889;DHT22;51092;50.874;7.024;2024-03-07T06:21:46;4.00;99.90
30889;DHT22;51092;50.874;7.024;2024-03-07T06:22:48;4.10;99.90
30889;DHT22;51092;50.874;7.024;2024-03-07T06:23:51;4.10;99.90
30889;DHT22;51092;50.874;7.024;2024-03-07T06:25:00;4.10;99.90
30889;DHT22;51092;50.874;7.024;2024-03-07T06:26:07;4.10;99.90
30889;DHT22;51092;50.874;7.024;2024-03-07T06:27:16;4.10;99.90
30889;DHT22;51092;50.874;7.024;2024-03-07T06:28:27;4.00;99.90
30889;DHT22;51092;50.874;7.024;2024-03-07T06:29:34;4.00;99.90
30889;DHT22;51092;50.874;7.024;2024-03-07T06:30:36;4.00;99.90
30889;DHT22;51092;50.874;7.024;2024-03-07T06:31:43;4.00;99.90
30889;DHT22;51092;50.874;7.024;2024-03-07T06:32:47;4.00;99.90
30889;DHT22;51092;50.874;7.024;2024-03-07T06:33:50;3.90;99.90
30889;DHT22;51092;50.874;7.024;2024-03-07T06:34:53;3.90;99.90
30889;DHT22;51092;50.874;7.024;2024-03-07T06:35:56;3.90;99.90
30889;DHT22;51092;50.874;7.024;2024-03-07T06:36:57;3.90;99.90
30889;DHT22;51092;50.874;7.024;2024-03-07T06:38:00;3.90;99.90
30889;DHT22;51092;50.874;7.024;2024-03-07T06:39:02;3.90;99.90
30889;DHT22;51092;50.874;7.024;2024-03-07T06:40:07;3.90;99.90
30889;DHT22;51092;50.874;7.024;2024-03-07T06:41:11;3.90;99.90
30889;DHT22;51092;50.874;7.024;2024-03-07T06:42:13;3.90;99.90
30889;DHT22;51092;50.874;7.024;2024-03-07T06:43:17;3.90;99.90
30889;DHT22;51092;50.874;7.024;2024-03-07T06:44:19;4.00;99.90
30889;DHT22;51092;50.874;7.024;2024-03-07T06:45:24;3.90;99.90
30889;DHT22;51092;50.874;7.024;2024-03-07T06:46:26;3.90;99.90
30889;DHT22;51092;50.874;7.024;2024-03-07T06:47:30;3.90;99.90
30889;DHT22;51092;50.874;7.024;2024-03-07T06:48:31;3.90;99.90
30889;DHT22;51092;50.874;7.024;2024-03-07T06:49:34;4.00;99.90